Time;durP1;ratioP1;P1;durP2;ratioP2;P2;SDS_P1;SDS_P2;PMS_P1;PMS_P2;Temp;Humidity;BMP_temperature;BMP_pressure;BME280_temperature;BME280_humidity;BME280_pressure;Samples;Min_cycle;Max_cycle;Signal;HPM_P1;HPM_P2
2022/06/06 00:00:51;;;;;;;17.15;15.48;;;15.90;99.90;;;;;;4980575;28;90042;-32
2022/06/06 00:03:18;;;;;;;17.80;15.98;;;15.90;99.90;;;;;;4981055;28;89595;-35
2022/06/06 00:05:47;;;;;;;15.30;12.53;;;15.80;99.90;;;;;;4980873;28;89101;-36
2022/06/06 00:08:14;;;;;;;10.93;9.88;;;15.80;99.90;;;;;;4981008;28;90315;-36
2022/06/06 00:10:41;;;;;;;10.52;9.50;;;15.80;99.90;;;;;;4981796;28;89854;-37
2022/06/06 00:13:09;;;;;;;10.70;9.60;;;15.80;99.90;;;;;;4981626;28;89324;-33
2022/06/06 00:15:35;;;;;;;10.60;8.83;;;15.70;99.90;;;;;;4980984;28;90089;-38
2022/06/06 00:18:01;;;;;;;10.38;8.75;;;15.70;99.90;;;;;;4981234;28;90631;-34
2022/06/06 00:20:27;;;;;;;9.45;8.65;;;15.60;99.90;;;;;;4982245;28;89721;-33
2022/06/06 00:22:53;;;;;;;11.00;8.35;;;15.50;99.90;;;;;;4981145;28;90108;-36
2022/06/06 00:25:19;;;;;;;8.52;7.72;;;15.60;99.90;;;;;;4981560;28;88612;-35
2022/06/06 00:27:45;;;;;;;8.95;8.15;;;15.50;99.90;;;;;;4981518;28;90253;-35
2022/06/06 00:30:11;;;;;;;7.97;7.15;;;15.50;99.90;;;;;;4981393;28;88533;-35
2022/06/06 00:35:22;;;;;;;14.77;8.65;;;15.50;99.90;;;;;;4968147;28;88179;-34
2022/06/06 00:37:47;;;;;;;8.90;8.05;;;15.50;99.90;;;;;;4980656;28;90007;-37
2022/06/06 00:40:20;;;;;;;10.68;8.40;;;15.40;99.90;;;;;;4980965;28;89787;-33
2022/06/06 00:42:46;;;;;;;9.02;8.23;;;15.40;99.90;;;;;;4980876;28;89998;-38
2022/06/06 00:45:18;;;;;;;8.38;7.53;;;15.40;99.90;;;;;;4980976;28;89189;-34
2022/06/06 00:47:48;;;;;;;8.65;7.03;;;15.40;99.90;;;;;;4977536;28;90334;-35
2022/06/06 00:50:18;;;;;;;6.15;5.65;;;15.40;99.90;;;;;;4981195;28;90892;-33
2022/06/06 00:52:47;;;;;;;6.25;5.65;;;15.40;99.90;;;;;;4980984;28;90504;-38
2022/06/06 00:55:19;;;;;;;5.43;4.90;;;15.40;99.90;;;;;;5011998;22;89469;-33
2022/06/06 00:58:05;;;;;;;6.07;5.57;;;15.40;99.90;;;;;;4960393;28;90137;-34
2022/06/06 01:00:31;;;;;;;6.55;5.95;;;15.30;99.90;;;;;;4960929;28;89775;-37
2022/06/06 01:03:00;;;;;;;6.13;5.63;;;15.30;99.90;;;;;;4960062;28;89795;-36
2022/06/06 01:05:27;;;;;;;6.10;5.50;;;15.30;99.90;;;;;;4960953;28;89836;-34
2022/06/06 01:07:53;;;;;;;6.10;5.50;;;15.30;99.90;;;;;;4960222;28;90426;-34
2022/06/06 01:10:20;;;;;;;9.00;5.82;;;15.30;99.90;;;;;;4960640;28;89701;-34
2022/06/06 01:12:49;;;;;;;9.45;5.03;;;15.30;99.90;;;;;;4959268;28;90827;-33
2022/06/06 01:15:18;;;;;;;5.22;4.80;;;15.30;99.90;;;;;;4961161;28;87686;-34
2022/06/06 01:17:55;;;;;;;6.78;6.10;;;15.30;99.90;;;;;;4960175;28;90160;-35
2022/06/06 01:20:48;;;;;;;7.17;6.47;;;15.30;99.90;;;;;;4960744;28;89613;-33
2022/06/06 01:23:50;;;;;;;6.45;5.85;;;15.30;99.90;;;;;;4960780;28;89571;-37
2022/06/06 01:26:31;;;;;;;7.72;5.95;;;15.30;99.90;;;;;;4960217;28;87537;-35
2022/06/06 01:29:10;;;;;;;9.07;6.55;;;15.30;99.90;;;;;;4960288;28;89225;-35
2022/06/06 01:31:49;;;;;;;6.38;5.80;;;15.20;99.90;;;;;;4959845;28;89436;-35
2022/06/06 01:34:25;;;;;;;7.10;6.50;;;15.30;99.90;;;;;;4960278;28;90608;-34
2022/06/06 01:36:53;;;;;;;6.85;6.25;;;15.20;99.90;;;;;;4960310;28;89936;-36
2022/06/06 01:39:21;;;;;;;7.45;6.82;;;15.10;99.90;;;;;;4961132;28;90117;-35
2022/06/06 01:42:06;;;;;;;8.10;7.30;;;15.10;99.90;;;;;;4960835;28;89617;-34
2022/06/06 01:44:56;;;;;;;7.53;6.70;;;15.10;99.90;;;;;;4959810;28;89319;-34
2022/06/06 01:47:30;;;;;;;8.50;7.22;;;15.00;99.90;;;;;;4960486;28;89128;-35
2022/06/06 01:49:58;;;;;;;10.20;6.75;;;15.00;99.90;;;;;;4959958;28;90823;-37
2022/06/06 01:52:24;;;;;;;7.93;6.75;;;15.00;99.90;;;;;;4960572;28;89607;-33
2022/06/06 01:54:53;;;;;;;9.05;7.00;;;15.10;99.90;;;;;;4958835;28;89611;-36
2022/06/06 01:57:20;;;;;;;7.50;6.90;;;15.00;99.90;;;;;;4959847;28;89160;-36
2022/06/06 01:59:47;;;;;;;7.53;6.72;;;15.00;99.90;;;;;;4959284;28;89798;-36
2022/06/06 02:02:12;;;;;;;7.57;6.95;;;15.10;99.90;;;;;;4959944;28;89735;-35
2022/06/06 02:04:38;;;;;;;8.52;7.72;;;15.00;99.90;;;;;;4959463;28;89740;-35
2022/06/06 02:07:04;;;;;;;8.00;7.35;;;15.00;99.90;;;;;;4960559;28;89095;-34
2022/06/06 02:09:31;;;;;;;7.90;7.13;;;15.00;99.90;;;;;;4960131;28;90411;-34
2022/06/06 02:11:59;;;;;;;8.75;6.72;;;15.00;99.90;;;;;;4959637;28;88755;-36
2022/06/06 02:14:24;;;;;;;6.60;5.97;;;15.10;99.90;;;;;;4959348;28;89468;-35
2022/06/06 02:16:51;;;;;;;7.20;6.55;;;15.00;99.90;;;;;;4960362;28;88844;-34
2022/06/06 02:19:16;;;;;;;6.20;5.60;;;15.00;99.90;;;;;;4958729;28;89807;-36
2022/06/06 02:21:42;;;;;;;7.15;6.50;;;15.00;99.90;;;;;;4959791;28;90285;-33
2022/06/06 02:24:08;;;;;;;7.15;6.00;;;15.00;99.90;;;;;;4959210;28;90641;-34
2022/06/06 02:26:34;;;;;;;6.22;5.72;;;15.00;99.90;;;;;;4959425;28;88756;-34
2022/06/06 02:29:00;;;;;;;11.38;10.18;;;15.00;99.90;;;;;;4960028;28;91634;-33
2022/06/06 02:31:27;;;;;;;15.20;11.43;;;15.00;99.90;;;;;;4958751;28;89940;-36
2022/06/06 02:33:53;;;;;;;14.40;12.68;;;15.00;99.90;;;;;;4958494;28;89246;-37
2022/06/06 02:36:18;;;;;;;17.20;14.40;;;15.00;99.90;;;;;;4959063;28;88616;-34
2022/06/06 02:38:45;;;;;;;18.33;14.43;;;15.00;99.90;;;;;;4958153;28;90099;-33
2022/06/06 02:41:10;;;;;;;14.52;12.18;;;15.10;99.90;;;;;;4959288;28;88887;-32
2022/06/06 02:43:42;;;;;;;15.40;12.77;;;15.00;99.90;;;;;;4957882;28;89569;-37
2022/06/06 02:46:11;;;;;;;17.30;13.43;;;15.00;99.90;;;;;;4959240;28;90196;-34
2022/06/06 02:48:37;;;;;;;18.02;15.43;;;14.90;99.90;;;;;;4958656;28;89992;-35
2022/06/06 02:51:03;;;;;;;15.52;13.93;;;15.00;99.90;;;;;;4958515;28;89858;-35
2022/06/06 02:53:30;;;;;;;16.42;14.77;;;15.00;99.90;;;;;;4959079;28;89789;-34
2022/06/06 02:55:57;;;;;;;18.20;13.57;;;14.90;99.90;;;;;;4958658;28;89652;-34
2022/06/06 02:58:24;;;;;;;18.65;15.15;;;14.90;99.90;;;;;;4958454;28;90218;-32
2022/06/06 03:01:01;;;;;;;14.88;13.18;;;14.90;99.90;;;;;;4958406;28;88840;-37
2022/06/06 03:03:28;;;;;;;13.10;11.57;;;14.80;99.90;;;;;;4958957;28;88772;-34
2022/06/06 03:06:05;;;;;;;20.85;12.65;;;14.80;99.90;;;;;;4958487;28;90736;-35
2022/06/06 03:08:59;;;;;;;13.45;10.57;;;14.80;99.90;;;;;;4958200;28;89737;-34
2022/06/06 03:11:50;;;;;;;13.07;11.63;;;14.70;99.90;;;;;;4958624;28;90307;-36
2022/06/06 03:14:25;;;;;;;14.27;12.23;;;14.70;99.90;;;;;;4957388;28;91490;-38
2022/06/06 03:23:22;;;;;;;14.52;12.77;;;14.70;99.90;;;;;;4958068;28;89928;-34
2022/06/06 03:26:45;;;;;;;26.63;17.25;;;14.60;99.90;;;;;;4939867;28;89316;-35
2022/06/06 03:29:35;;;;;;;22.25;17.02;;;14.60;99.90;;;;;;4877861;28;88589;-33
2022/06/06 03:32:34;;;;;;;27.85;18.95;;;14.60;99.90;;;;;;4878114;28;90767;-32
2022/06/06 03:35:24;;;;;;;27.00;19.10;;;14.50;99.90;;;;;;4946990;28;89729;-32
2022/06/06 03:38:19;;;;;;;29.95;20.48;;;14.40;99.90;;;;;;4961507;28;89350;-36
2022/06/06 03:41:02;;;;;;;31.40;22.75;;;14.40;99.90;;;;;;4951041;28;89613;-35
2022/06/06 03:44:00;;;;;;;32.50;21.17;;;14.50;99.90;;;;;;4961698;28;90286;-34
2022/06/06 03:46:43;;;;;;;;;;;14.40;99.90;;;;;;4957900;28;90215;-34
2022/06/06 03:49:24;;;;;;;28.60;20.05;;;14.40;99.90;;;;;;4963544;28;89599;-37
2022/06/06 03:52:01;;;;;;;19.20;16.05;;;14.30;99.90;;;;;;4961220;28;87658;-35
2022/06/06 03:54:33;;;;;;;19.17;13.63;;;14.30;99.90;;;;;;4961395;28;90030;-35
2022/06/06 03:57:17;;;;;;;14.77;11.63;;;14.30;99.90;;;;;;4960917;28;89472;-33
2022/06/06 03:59:46;;;;;;;16.90;11.50;;;14.30;99.90;;;;;;4961803;28;90272;-33
2022/06/06 04:02:18;;;;;;;16.92;11.68;;;14.30;99.90;;;;;;4961798;28;89623;-34
2022/06/06 04:04:45;;;;;;;13.98;9.68;;;14.30;99.90;;;;;;4961117;28;90282;-37
2022/06/06 04:07:11;;;;;;;11.90;8.43;;;14.20;99.90;;;;;;4961998;28;90587;-33
2022/06/06 04:09:36;;;;;;;11.75;7.00;;;14.20;99.90;;;;;;4961225;28;90532;-37
2022/06/06 04:12:49;;;;;;;11.10;7.50;;;14.20;99.90;;;;;;4962279;28;88308;-34
2022/06/06 04:15:42;;;;;;;10.25;7.32;;;14.10;99.90;;;;;;4942337;28;90105;-34
2022/06/06 04:18:22;;;;;;;15.15;9.50;;;14.10;99.90;;;;;;4961659;28;89703;-35
2022/06/06 04:21:06;;;;;;;13.20;8.30;;;14.10;99.90;;;;;;4961187;28;89931;-37
2022/06/06 04:23:44;;;;;;;9.25;6.90;;;14.10;99.90;;;;;;4962060;28;88033;-34
2022/06/06 04:26:33;;;;;;;9.67;7.37;;;14.10;99.90;;;;;;4961377;28;90629;-33
2022/06/06 04:29:04;;;;;;;9.38;5.88;;;14.10;99.90;;;;;;4961899;28;89461;-34
2022/06/06 04:31:58;;;;;;;7.22;5.45;;;14.20;99.90;;;;;;4961869;28;89552;-34
2022/06/06 04:34:41;;;;;;;9.45;6.40;;;14.10;99.90;;;;;;4960785;28;90586;-34
2022/06/06 04:37:17;;;;;;;8.27;6.25;;;14.10;99.90;;;;;;4961597;28;90422;-36
2022/06/06 04:40:20;;;;;;;8.13;6.25;;;14.10;99.90;;;;;;4961054;28;89866;-36
2022/06/06 04:43:16;;;;;;;8.57;7.28;;;14.10;99.90;;;;;;4961248;28;89529;-33
2022/06/06 04:45:57;;;;;;;15.48;8.52;;;14.10;99.90;;;;;;4960953;28;87617;-36
2022/06/06 04:48:25;;;;;;;12.20;8.38;;;14.00;99.90;;;;;;4960910;28;89955;-34
2022/06/06 04:50:51;;;;;;;11.73;9.00;;;14.10;99.90;;;;;;4961169;28;90142;-35
2022/06/06 04:53:20;;;;;;;12.95;10.68;;;14.00;99.90;;;;;;4961369;28;89462;-38
2022/06/06 04:55:48;;;;;;;20.05;10.38;;;14.00;99.90;;;;;;4960560;28;88243;-34
2022/06/06 04:58:15;;;;;;;16.25;12.15;;;14.00;99.90;;;;;;4959765;28;90218;-35
2022/06/06 05:00:42;;;;;;;15.18;12.68;;;14.00;99.90;;;;;;4941603;28;90221;-34
2022/06/06 05:03:08;;;;;;;21.65;13.68;;;14.00;99.90;;;;;;4960600;28;90752;-36
2022/06/06 05:05:49;;;;;;;17.83;13.82;;;14.00;99.90;;;;;;4960739;28;89255;-34
2022/06/06 05:08:17;;;;;;;22.27;15.40;;;14.00;99.90;;;;;;4947952;28;90282;-35
2022/06/06 05:11:02;;;;;;;19.85;15.38;;;14.00;99.90;;;;;;4959792;28;89739;-36
2022/06/06 05:14:10;;;;;;;19.77;15.65;;;13.90;99.90;;;;;;4948762;28;89556;-35
2022/06/06 05:17:21;;;;;;;21.88;16.23;;;14.00;99.90;;;;;;4959917;28;89434;-37
2022/06/06 05:20:08;;;;;;;16.88;12.77;;;14.00;99.90;;;;;;4937096;28;90634;-35
2022/06/06 05:22:57;;;;;;;21.70;15.73;;;14.00;99.90;;;;;;4937186;28;89837;-37
2022/06/06 05:25:38;;;;;;;21.83;14.32;;;14.00;99.90;;;;;;4954458;28;90144;-33
2022/06/06 05:28:28;;;;;;;26.50;13.93;;;14.00;99.90;;;;;;4959758;28;88811;-36
2022/06/06 05:31:26;;;;;;;19.67;14.50;;;14.00;99.90;;;;;;4960727;28;89943;-34
2022/06/06 05:33:55;;;;;;;;;;;14.00;99.90;;;;;;4948293;28;89975;-37
2022/06/06 05:36:39;;;;;;;19.55;15.15;;;14.00;99.90;;;;;;4961737;28;90466;-33
2022/06/06 05:39:42;;;;;;;16.52;11.90;;;14.00;99.90;;;;;;4960274;28;89879;-32
2022/06/06 05:42:11;;;;;;;15.18;12.07;;;14.00;99.90;;;;;;4960683;28;90257;-32
2022/06/06 05:44:56;;;;;;;;;;;14.10;99.90;;;;;;4960048;28;89476;-35
2022/06/06 05:47:28;;;;;;;23.50;14.00;;;14.00;99.90;;;;;;4961619;28;89758;-35
2022/06/06 05:50:26;;;;;;;18.40;12.13;;;14.00;99.90;;;;;;4959870;28;89011;-35
2022/06/06 05:53:05;;;;;;;21.67;12.80;;;14.00;99.90;;;;;;4947585;28;90574;-35
2022/06/06 05:55:58;;;;;;;16.92;11.93;;;14.10;99.90;;;;;;4958633;28;90661;-33
2022/06/06 05:58:42;;;;;;;19.35;12.15;;;14.10;99.90;;;;;;4958165;28;90939;-34
2022/06/06 06:01:22;;;;;;;15.95;11.77;;;14.10;99.90;;;;;;4959790;28;89472;-34
2022/06/06 06:04:07;;;;;;;14.95;10.90;;;14.10;99.90;;;;;;4958958;28;90349;-35
2022/06/06 06:07:00;;;;;;;17.15;13.35;;;14.10;99.90;;;;;;4947522;28;89601;-37
2022/06/06 06:09:47;;;;;;;18.17;12.82;;;14.10;99.90;;;;;;4958404;28;88869;-34
2022/06/06 06:12:21;;;;;;;18.10;12.52;;;14.10;99.90;;;;;;4959301;28;89005;-36
2022/06/06 06:15:12;;;;;;;18.92;12.18;;;14.20;99.90;;;;;;4958534;28;90293;-33
2022/06/06 06:17:39;;;;;;;21.88;12.77;;;14.30;99.90;;;;;;4959316;28;90029;-34
2022/06/06 06:20:11;;;;;;;16.13;12.55;;;14.30;99.90;;;;;;4958936;28;89861;-36
2022/06/06 06:22:45;;;;;;;16.83;11.63;;;14.30;99.90;;;;;;4958676;28;90186;-35
2022/06/06 06:25:13;;;;;;;14.38;10.73;;;14.30;99.90;;;;;;4946155;28;90226;-33
2022/06/06 06:27:39;;;;;;;17.52;11.07;;;14.40;99.90;;;;;;4959018;28;89827;-37
2022/06/06 06:30:06;;;;;;;14.02;12.05;;;14.50;99.90;;;;;;4959267;28;89165;-37
2022/06/06 06:32:50;;;;;;;11.45;9.23;;;14.60;99.90;;;;;;4958471;28;89340;-35
2022/06/06 06:35:26;;;;;;;13.25;10.02;;;14.80;99.90;;;;;;4959578;28;91193;-33
2022/06/06 06:38:07;;;;;;;10.30;8.05;;;15.10;99.90;;;;;;4962222;28;90045;-34
2022/06/06 06:40:50;;;;;;;10.85;7.47;;;15.50;99.90;;;;;;4964254;28;88748;-35
2022/06/06 06:43:52;;;;;;;11.80;7.05;;;15.80;99.90;;;;;;4959652;28;88673;-34
2022/06/06 06:46:33;;;;;;;11.10;6.53;;;16.10;99.90;;;;;;4959931;28;89960;-36
2022/06/06 06:49:25;;;;;;;8.98;6.40;;;16.50;99.90;;;;;;4958889;28;90301;-35
2022/06/06 06:52:27;;;;;;;8.50;6.80;;;16.60;99.90;;;;;;4959133;28;90381;-34
2022/06/06 06:55:21;;;;;;;11.52;8.18;;;16.70;99.90;;;;;;4959110;28;89942;-37
2022/06/06 06:58:14;;;;;;;12.70;8.90;;;16.60;99.90;;;;;;4958547;28;90327;-36
2022/06/06 07:00:47;;;;;;;12.63;8.45;;;16.70;99.90;;;;;;4958987;28;89751;-35
2022/06/06 07:09:28;;;;;;;14.13;8.48;;;17.20;99.90;;;;;;4954815;28;90363;-34
2022/06/06 07:12:15;;;;;;;12.23;8.65;;;17.20;99.90;;;;;;4962496;28;89512;-35
2022/06/06 07:15:32;;;;;;;15.40;8.95;;;17.00;99.90;;;;;;4962005;28;89465;-33
2022/06/06 07:17:59;;;;;;;;;;;16.60;99.90;;;;;;4938320;28;89793;-36
2022/06/06 07:20:27;;;;;;;10.88;8.65;;;16.40;99.90;;;;;;4964291;28;89841;-35
2022/06/06 07:23:03;;;;;;;13.85;9.57;;;16.30;99.90;;;;;;4962476;28;89711;-34
2022/06/06 07:25:45;;;;;;;11.10;8.90;;;16.30;99.90;;;;;;4962109;28;89398;-35
2022/06/06 07:28:21;;;;;;;13.40;8.73;;;16.30;99.90;;;;;;4962754;28;87931;-34
2022/06/06 07:30:55;;;;;;;13.55;10.10;;;16.30;99.90;;;;;;4962278;28;89201;-34
2022/06/06 07:33:44;;;;;;;12.13;7.82;;;16.40;99.90;;;;;;4961555;28;89974;-37
2022/06/06 07:36:36;;;;;;;13.82;11.07;;;16.50;99.90;;;;;;4958760;28;90284;-33
2022/06/06 07:39:23;;;;;;;17.90;10.80;;;16.40;99.90;;;;;;4954284;28;90276;-38
2022/06/06 07:41:58;;;;;;;16.27;10.43;;;16.50;99.90;;;;;;4959592;28;90108;-35
2022/06/06 07:44:33;;;;;;;15.82;10.88;;;16.80;99.90;;;;;;4958601;28;90764;-33
2022/06/06 07:47:09;;;;;;;19.08;12.48;;;16.80;99.90;;;;;;4959893;28;90504;-36
2022/06/06 07:49:47;;;;;;;17.30;11.80;;;16.60;99.90;;;;;;4974408;28;88365;-34
2022/06/06 07:52:28;;;;;;;18.30;11.27;;;16.60;99.90;;;;;;4959925;28;89620;-34
2022/06/06 07:54:57;;;;;;;18.35;12.20;;;16.40;99.90;;;;;;4957851;28;89718;-37
2022/06/06 07:57:58;;;;;;;20.25;13.45;;;16.20;99.90;;;;;;4961503;28;90206;-35
2022/06/06 08:00:28;;;;;;;18.25;14.38;;;16.10;99.90;;;;;;4959749;28;88196;-34
2022/06/06 08:03:23;;;;;;;15.82;11.43;;;15.90;99.90;;;;;;4958994;28;90100;-32
2022/06/06 08:06:10;;;;;;;15.65;13.05;;;15.90;99.90;;;;;;4960287;28;89704;-33
2022/06/06 08:09:17;;;;;;;15.60;13.83;;;15.80;99.90;;;;;;4958733;28;89966;-34
2022/06/06 08:12:13;;;;;;;17.85;12.88;;;15.60;99.90;;;;;;4958894;28;89273;-34
2022/06/06 08:15:09;;;;;;;16.10;11.65;;;15.60;99.90;;;;;;4960017;28;90384;-33
2022/06/06 08:17:46;;;;;;;16.08;12.52;;;15.60;99.90;;;;;;4955447;28;90545;-35
2022/06/06 08:20:22;;;;;;;19.90;12.83;;;15.50;99.90;;;;;;4959111;28;89551;-36
2022/06/06 08:22:50;;;;;;;14.45;12.35;;;15.60;99.90;;;;;;4959706;28;89980;-33
2022/06/06 08:25:16;;;;;;;24.02;12.15;;;15.70;99.90;;;;;;4959294;28;90407;-36
2022/06/06 08:27:47;;;;;;;15.18;10.55;;;16.10;99.90;;;;;;4958139;28;90577;-34
2022/06/06 08:30:14;;;;;;;14.18;11.25;;;16.50;99.90;;;;;;4956194;28;89228;-36
2022/06/06 08:32:39;;;;;;;11.20;9.43;;;16.70;99.90;;;;;;4961073;28;89404;-35
2022/06/06 08:35:06;;;;;;;10.18;9.10;;;16.90;99.90;;;;;;4964894;28;89278;-35
2022/06/06 08:37:43;;;;;;;8.90;7.80;;;17.20;99.90;;;;;;4959210;28;90693;-36
2022/06/06 08:40:42;;;;;;;11.00;8.63;;;17.30;99.90;;;;;;4958732;28;89937;-34
2022/06/06 08:43:42;;;;;;;14.75;8.82;;;17.50;99.90;;;;;;4960775;28;88491;-36
2022/06/06 08:46:17;;;;;;;9.60;7.35;;;17.10;99.90;;;;;;4963516;28;90330;-34
2022/06/06 08:49:01;;;;;;;10.45;7.22;;;16.90;99.90;;;;;;4961531;28;89632;-33
2022/06/06 08:51:35;;;;;;;7.50;6.68;;;16.80;99.90;;;;;;4961093;28;88898;-36
2022/06/06 08:54:40;;;;;;;8.57;5.18;;;17.00;99.90;;;;;;4961149;28;89802;-35
2022/06/06 08:57:34;;;;;;;7.28;5.40;;;17.70;99.90;;;;;;4961325;28;90149;-36
2022/06/06 09:00:24;;;;;;;5.57;4.75;;;17.90;99.90;;;;;;4923449;28;90170;-33
2022/06/06 09:03:04;;;;;;;4.80;4.28;;;18.30;99.90;;;;;;4960842;28;90126;-35
2022/06/06 09:05:51;;;;;;;6.25;4.88;;;18.60;99.90;;;;;;4960811;28;90633;-38
2022/06/06 09:08:31;;;;;;;4.50;4.10;;;18.30;99.90;;;;;;4948677;28;90408;-34
2022/06/06 09:11:17;;;;;;;4.72;4.30;;;18.40;99.90;;;;;;4960477;28;90504;-35
2022/06/06 09:13:58;;;;;;;4.80;4.40;;;18.50;99.90;;;;;;4960746;28;89731;-33
2022/06/06 09:16:44;;;;;;;12.68;4.45;;;18.30;99.90;;;;;;4960947;28;88287;-35
2022/06/06 09:19:18;;;;;;;4.47;4.05;;;18.80;99.90;;;;;;4961145;28;90235;-34
2022/06/06 09:22:03;;;;;;;5.53;3.90;;;19.00;99.90;;;;;;4960394;28;90032;-34
2022/06/06 09:25:01;;;;;;;7.30;4.00;;;19.20;99.90;;;;;;4960835;28;89433;-38
2022/06/06 09:27:56;;;;;;;5.65;3.92;;;19.00;99.90;;;;;;4961286;28;89120;-37
2022/06/06 09:30:28;;;;;;;6.20;3.65;;;19.00;99.90;;;;;;4960261;28;89883;-36
2022/06/06 09:33:14;;;;;;;3.10;2.80;;;18.40;99.90;;;;;;4959028;28;90224;-37
2022/06/06 09:36:05;;;;;;;3.40;2.97;;;18.30;99.90;;;;;;4959850;28;90296;-34
2022/06/06 09:39:06;;;;;;;5.75;2.88;;;18.20;99.90;;;;;;4961016;28;89490;-35
2022/06/06 09:41:38;;;;;;;4.72;3.45;;;18.70;99.90;;;;;;4952673;28;89834;-35
2022/06/06 09:44:22;;;;;;;3.30;3.00;;;18.90;99.90;;;;;;4960476;28;89339;-34
2022/06/06 09:47:28;;;;;;;3.45;3.00;;;19.00;99.90;;;;;;4959923;28;89918;-37
2022/06/06 09:50:06;;;;;;;3.75;3.45;;;18.70;99.90;;;;;;4960347;28;87859;-35
2022/06/06 09:52:50;;;;;;;4.82;3.17;;;18.70;99.90;;;;;;4961077;28;89666;-35
2022/06/06 09:59:23;;;;;;;3.28;3.08;;;18.30;99.90;;;;;;4960253;28;90115;-36
2022/06/06 10:01:51;;;;;;;5.40;2.85;;;18.50;99.90;;;;;;4940099;28;89598;-36
2022/06/06 10:04:55;;;;;;;4.00;2.55;;;19.00;99.90;;;;;;4958928;28;90209;-36
2022/06/06 10:07:27;;;;;;;5.45;3.25;;;18.60;99.90;;;;;;4959846;28;90081;-35
2022/06/06 10:10:31;;;;;;;3.47;2.60;;;18.40;99.90;;;;;;4959303;28;88501;-34
2022/06/06 10:13:13;;;;;;;4.68;2.85;;;18.30;99.90;;;;;;4952236;28;89176;-37
2022/06/06 10:15:49;;;;;;;2.85;2.58;;;17.90;99.90;;;;;;4953581;28;90444;-33
2022/06/06 10:18:21;;;;;;;3.97;3.67;;;17.90;99.90;;;;;;4957888;28;89736;-36
2022/06/06 10:21:01;;;;;;;3.70;3.17;;;18.10;99.90;;;;;;4956990;28;89532;-35
2022/06/06 10:23:42;;;;;;;4.25;3.45;;;18.10;99.90;;;;;;4957287;28;88279;-35
2022/06/06 10:26:32;;;;;;;4.10;3.80;;;18.30;99.90;;;;;;4956799;28;90269;-36
2022/06/06 10:29:12;;;;;;;4.93;4.53;;;18.80;99.90;;;;;;4955596;28;90544;-35
2022/06/06 10:31:57;;;;;;;5.03;3.17;;;18.80;99.90;;;;;;4946555;28;90671;-33
2022/06/06 10:34:37;;;;;;;3.33;3.03;;;18.50;99.90;;;;;;4957911;28;89457;-35
2022/06/06 10:37:34;;;;;;;2.75;2.55;;;18.10;99.90;;;;;;4957355;28;91665;-34
2022/06/06 10:40:25;;;;;;;2.63;2.43;;;17.90;99.90;;;;;;4956599;28;89458;-35
2022/06/06 10:43:18;;;;;;;6.55;3.35;;;17.60;99.90;;;;;;4957199;28;89745;-33
2022/06/06 10:46:01;;;;;;;6.90;4.13;;;17.40;99.90;;;;;;4958437;28;89003;-35
2022/06/06 10:48:41;;;;;;;4.53;4.18;;;16.80;99.90;;;;;;4958846;28;89735;-36
2022/06/06 10:51:39;;;;;;;4.70;4.30;;;16.50;99.90;;;;;;4950114;28;90252;-34
2022/06/06 10:54:23;;;;;;;5.13;4.07;;;16.00;99.90;;;;;;4957624;28;89796;-37
2022/06/06 10:57:16;;;;;;;9.18;4.47;;;15.90;99.90;;;;;;4956327;28;89845;-35
2022/06/06 11:00:08;;;;;;;5.78;3.78;;;15.70;99.90;;;;;;4957262;28;90163;-35
2022/06/06 11:02:34;;;;;;;4.40;4.00;;;15.60;99.90;;;;;;4956863;28;89551;-39
2022/06/06 11:05:31;;;;;;;5.55;3.95;;;15.50;99.90;;;;;;4957027;28;89414;-37
2022/06/06 11:08:00;;;;;;;4.73;3.90;;;15.60;99.90;;;;;;4957288;28;89240;-36
2022/06/06 11:10:47;;;;;;;5.85;3.63;;;15.70;99.90;;;;;;4957188;28;91697;-35
2022/06/06 11:13:51;;;;;;;7.50;2.93;;;15.30;99.90;;;;;;4957399;28;91042;-35
2022/06/06 11:16:32;;;;;;;6.80;2.28;;;15.10;99.90;;;;;;4956883;28;89050;-35
2022/06/06 11:19:19;;;;;;;7.15;2.20;;;14.60;99.90;;;;;;4957660;28;89684;-36
2022/06/06 11:22:20;;;;;;;5.88;2.35;;;14.50;99.90;;;;;;4958008;28;90088;-36
2022/06/06 11:25:11;;;;;;;8.30;1.70;;;14.10;99.90;;;;;;4956886;28;90711;-35
2022/06/06 11:28:04;;;;;;;3.83;2.17;;;13.90;99.90;;;;;;4961579;28;91205;-35
2022/06/06 11:31:08;;;;;;;3.38;2.17;;;13.90;99.90;;;;;;4963286;28;88622;-35
2022/06/06 11:34:13;;;;;;;2.47;2.05;;;13.80;99.90;;;;;;4958336;28;90432;-36
2022/06/06 11:37:12;;;;;;;2.78;2.05;;;13.90;99.90;;;;;;4957973;28;89853;-37
2022/06/06 11:40:03;;;;;;;2.85;2.65;;;13.90;99.90;;;;;;4956774;28;89311;-36
2022/06/06 11:43:17;;;;;;;3.28;2.85;;;14.00;99.90;;;;;;4957650;28;88094;-35
2022/06/06 11:46:13;;;;;;;3.10;2.90;;;14.30;99.90;;;;;;4854717;28;90222;-36
2022/06/06 11:48:45;;;;;;;4.13;3.22;;;14.60;99.90;;;;;;4956357;28;89819;-34
2022/06/06 11:51:40;;;;;;;2.65;2.45;;;14.70;99.90;;;;;;4956397;28;91249;-38
2022/06/06 11:54:30;;;;;;;2.40;2.30;;;14.80;99.90;;;;;;4931987;28;88330;-34
2022/06/06 11:57:16;;;;;;;4.07;3.13;;;14.80;99.90;;;;;;4958553;28;90304;-34
2022/06/06 12:00:23;;;;;;;4.63;3.15;;;14.90;99.90;;;;;;4959898;28;89546;-35
2022/06/06 12:03:11;;;;;;;7.25;3.40;;;15.00;99.90;;;;;;4959031;28;89535;-38
2022/06/06 12:05:56;;;;;;;4.53;3.47;;;15.10;99.90;;;;;;4959384;28;90030;-34
2022/06/06 12:08:22;;;;;;;3.22;2.95;;;15.20;99.90;;;;;;4959467;28;91245;-33
2022/06/06 12:11:06;;;;;;;5.07;2.83;;;14.90;99.90;;;;;;4959215;28;90330;-35
2022/06/06 12:13:50;;;;;;;3.97;2.67;;;14.50;99.90;;;;;;4960175;28;90064;-36
2022/06/06 12:16:22;;;;;;;4.97;2.10;;;14.30;99.90;;;;;;4959287;28;88650;-38
2022/06/06 12:19:19;;;;;;;2.95;2.33;;;14.30;99.90;;;;;;4959000;28;90498;-36
2022/06/06 12:21:44;;;;;;;2.67;2.47;;;14.20;99.90;;;;;;4958556;28;90635;-33
2022/06/06 12:24:34;;;;;;;3.58;2.90;;;14.30;99.90;;;;;;4960288;28;90338;-33
2022/06/06 12:27:21;;;;;;;2.60;2.40;;;14.50;99.90;;;;;;4959088;28;87978;-35
2022/06/06 12:30:12;;;;;;;3.08;2.88;;;14.70;99.90;;;;;;4958984;28;89212;-36
2022/06/06 12:32:58;;;;;;;3.78;3.47;;;15.00;99.90;;;;;;4951432;28;90666;-36
2022/06/06 12:35:36;;;;;;;4.43;3.17;;;15.20;99.90;;;;;;4959807;28;89639;-37
2022/06/06 12:38:29;;;;;;;2.83;2.63;;;15.50;99.90;;;;;;4961710;28;88514;-37
2022/06/06 12:41:04;;;;;;;4.85;3.63;;;15.70;99.90;;;;;;4952773;28;89416;-37
2022/06/06 12:44:20;;;;;;;3.55;2.97;;;15.80;99.90;;;;;;4974404;28;89740;-37
2022/06/06 12:47:23;;;;;;;4.05;3.33;;;15.90;99.90;;;;;;4931119;28;89404;-35
2022/06/06 12:50:04;;;;;;;3.33;3.08;;;16.10;99.90;;;;;;4940121;28;88620;-38
2022/06/06 12:53:05;;;;;;;3.30;3.03;;;16.30;99.90;;;;;;4953943;28;91582;-33
2022/06/06 12:56:37;;;;;;;4.70;3.58;;;16.50;99.90;;;;;;5007796;22;90002;-36
2022/06/06 12:59:06;;;;;;;3.60;3.33;;;16.70;99.90;;;;;;4973683;28;89819;-37
2022/06/06 13:01:38;;;;;;;4.03;3.63;;;16.70;99.90;;;;;;4975456;28;89640;-38
2022/06/06 13:04:59;;;;;;;2.83;2.63;;;16.80;99.90;;;;;;4978052;28;90481;-33
2022/06/06 13:07:40;;;;;;;3.15;2.90;;;16.90;99.90;;;;;;4943010;28;89955;-36
2022/06/06 13:10:25;;;;;;;3.00;2.65;;;17.00;99.90;;;;;;4978559;28;91252;-35
2022/06/06 13:13:21;;;;;;;2.40;2.20;;;17.10;99.90;;;;;;4975439;28;88858;-34
2022/06/06 13:15:55;;;;;;;5.28;2.97;;;17.40;99.90;;;;;;4977753;28;90314;-38
2022/06/06 13:18:45;;;;;;;3.20;2.60;;;17.40;99.90;;;;;;4977346;28;90470;-34
2022/06/06 13:21:32;;;;;;;2.80;2.60;;;17.60;99.90;;;;;;4973891;28;92035;-35
2022/06/06 13:24:24;;;;;;;3.30;3.10;;;17.60;99.90;;;;;;4978069;28;88315;-36
2022/06/06 13:26:55;;;;;;;4.82;3.70;;;17.60;99.90;;;;;;4977809;28;90475;-34
2022/06/06 13:29:26;;;;;;;3.35;2.92;;;17.60;99.90;;;;;;4977607;28;89729;-35
2022/06/06 13:32:17;;;;;;;4.30;3.05;;;17.40;99.90;;;;;;4977181;28;89604;-37
2022/06/06 13:34:51;;;;;;;3.42;3.05;;;17.40;99.90;;;;;;4977722;28;88216;-35
2022/06/06 13:37:49;;;;;;;3.63;3.15;;;17.40;99.90;;;;;;4978248;28;90596;-37
2022/06/06 13:40:46;;;;;;;5.20;1.92;;;17.20;99.90;;;;;;4976174;28;90617;-35
2022/06/06 13:43:42;;;;;;;1.80;1.70;;;17.10;99.90;;;;;;4971892;28;89530;-35
2022/06/06 13:46:37;;;;;;;1.80;1.70;;;17.00;99.90;;;;;;4977860;28;89822;-36
2022/06/06 13:49:20;;;;;;;3.88;1.77;;;17.10;99.90;;;;;;4977665;28;90083;-37
2022/06/06 13:52:04;;;;;;;2.38;2.22;;;17.00;99.90;;;;;;4972718;28;89549;-36
2022/06/06 13:54:36;;;;;;;2.53;2.00;;;17.10;99.90;;;;;;4976919;28;89815;-35
2022/06/06 13:57:19;;;;;;;2.45;2.28;;;17.00;99.90;;;;;;4977611;28;89699;-35
2022/06/06 14:00:18;;;;;;;1.83;1.73;;;17.00;99.90;;;;;;4976984;28;91024;-36
2022/06/06 14:02:48;;;;;;;3.85;2.50;;;16.80;99.90;;;;;;4977099;28;89349;-35
2022/06/06 14:05:53;;;;;;;3.90;2.70;;;16.70;99.90;;;;;;4977406;28;89634;-37
2022/06/06 14:08:20;;;;;;;2.40;2.17;;;16.50;99.90;;;;;;4977680;28;88671;-36
2022/06/06 14:10:53;;;;;;;3.22;2.45;;;16.30;99.90;;;;;;4977877;28;89665;-38